sensor_id;sensor_type;location;lat;lon;timestamp;P1;durP1;ratioP1;P2;durP2;ratioP2
21697;SDS011;11010;49.548;11.926;2023-12-20T00:01:11;10.17;;;2.90;;
21697;SDS011;11010;49.548;11.926;2023-12-20T00:03:39;9.73;;;3.20;;
21697;SDS011;11010;49.548;11.926;2023-12-20T00:06:08;7.80;;;2.57;;
21697;SDS011;11010;49.548;11.926;2023-12-20T00:08:37;9.80;;;2.83;;
21697;SDS011;11010;49.548;11.926;2023-12-20T00:11:04;9.67;;;3.47;;
21697;SDS011;11010;49.548;11.926;2023-12-20T00:13:32;9.30;;;3.10;;
21697;SDS011;11010;49.548;11.926;2023-12-20T00:16:00;10.57;;;3.30;;
21697;SDS011;11010;49.548;11.926;2023-12-20T00:18:27;9.30;;;3.10;;
21697;SDS011;11010;49.548;11.926;2023-12-20T00:20:55;9.30;;;3.20;;
21697;SDS011;11010;49.548;11.926;2023-12-20T00:23:23;10.07;;;3.27;;
21697;SDS011;11010;49.548;11.926;2023-12-20T00:25:51;9.87;;;3.17;;
21697;SDS011;11010;49.548;11.926;2023-12-20T00:28:18;10.40;;;3.57;;
21697;SDS011;11010;49.548;11.926;2023-12-20T00:30:46;9.07;;;3.30;;
21697;SDS011;11010;49.548;11.926;2023-12-20T00:33:14;9.67;;;3.50;;
21697;SDS011;11010;49.548;11.926;2023-12-20T00:35:41;8.00;;;2.57;;
21697;SDS011;11010;49.548;11.926;2023-12-20T00:38:09;10.57;;;3.63;;
21697;SDS011;11010;49.548;11.926;2023-12-20T00:40:37;10.70;;;3.80;;
21697;SDS011;11010;49.548;11.926;2023-12-20T00:43:05;8.23;;;3.10;;
21697;SDS011;11010;49.548;11.926;2023-12-20T00:45:33;10.83;;;3.97;;
21697;SDS011;11010;49.548;11.926;2023-12-20T00:48:00;10.93;;;3.50;;
21697;SDS011;11010;49.548;11.926;2023-12-20T00:50:28;10.07;;;3.47;;
21697;SDS011;11010;49.548;11.926;2023-12-20T00:52:56;11.13;;;3.73;;
21697;SDS011;11010;49.548;11.926;2023-12-20T00:55:23;8.27;;;2.93;;
21697;SDS011;11010;49.548;11.926;2023-12-20T00:57:51;10.13;;;3.43;;
21697;SDS011;11010;49.548;11.926;2023-12-20T01:00:20;10.50;;;3.47;;
21697;SDS011;11010;49.548;11.926;2023-12-20T01:02:48;9.80;;;3.77;;
21697;SDS011;11010;49.548;11.926;2023-12-20T01:05:18;11.83;;;3.50;;
21697;SDS011;11010;49.548;11.926;2023-12-20T01:07:46;10.67;;;3.63;;
21697;SDS011;11010;49.548;11.926;2023-12-20T01:10:13;10.93;;;4.00;;
21697;SDS011;11010;49.548;11.926;2023-12-20T01:12:41;10.10;;;3.80;;
21697;SDS011;11010;49.548;11.926;2023-12-20T01:15:09;11.43;;;3.73;;
21697;SDS011;11010;49.548;11.926;2023-12-20T01:17:36;10.03;;;3.80;;
21697;SDS011;11010;49.548;11.926;2023-12-20T01:20:04;9.60;;;3.63;;
21697;SDS011;11010;49.548;11.926;2023-12-20T01:22:32;12.07;;;3.80;;
21697;SDS011;11010;49.548;11.926;2023-12-20T01:25:02;9.67;;;3.63;;
21697;SDS011;11010;49.548;11.926;2023-12-20T01:27:30;11.77;;;3.87;;
21697;SDS011;11010;49.548;11.926;2023-12-20T01:29:58;10.10;;;3.27;;
21697;SDS011;11010;49.548;11.926;2023-12-20T01:32:26;9.40;;;3.60;;
21697;SDS011;11010;49.548;11.926;2023-12-20T01:34:53;11.60;;;4.43;;
21697;SDS011;11010;49.548;11.926;2023-12-20T01:37:25;10.00;;;3.87;;
21697;SDS011;11010;49.548;11.926;2023-12-20T01:39:55;10.07;;;3.60;;
21697;SDS011;11010;49.548;11.926;2023-12-20T01:42:23;9.47;;;3.47;;
21697;SDS011;11010;49.548;11.926;2023-12-20T01:44:51;12.03;;;4.20;;
21697;SDS011;11010;49.548;11.926;2023-12-20T01:47:18;9.13;;;3.77;;
21697;SDS011;11010;49.548;11.926;2023-12-20T01:49:46;9.60;;;3.60;;
21697;SDS011;11010;49.548;11.926;2023-12-20T01:52:14;10.23;;;3.60;;
21697;SDS011;11010;49.548;11.926;2023-12-20T01:54:41;10.27;;;3.90;;
21697;SDS011;11010;49.548;11.926;2023-12-20T01:57:10;9.13;;;3.17;;
21697;SDS011;11010;49.548;11.926;2023-12-20T01:59:38;9.30;;;3.50;;
21697;SDS011;11010;49.548;11.926;2023-12-20T02:02:06;9.47;;;3.30;;
21697;SDS011;11010;49.548;11.926;2023-12-20T02:04:35;9.93;;;3.10;;
21697;SDS011;11010;49.548;11.926;2023-12-20T02:07:03;8.77;;;2.83;;
21697;SDS011;11010;49.548;11.926;2023-12-20T02:09:30;9.33;;;3.33;;
21697;SDS011;11010;49.548;11.926;2023-12-20T02:11:59;9.60;;;3.30;;
21697;SDS011;11010;49.548;11.926;2023-12-20T02:14:26;8.97;;;2.93;;
21697;SDS011;11010;49.548;11.926;2023-12-20T02:16:54;8.10;;;2.83;;
21697;SDS011;11010;49.548;11.926;2023-12-20T02:19:22;8.87;;;3.10;;
21697;SDS011;11010;49.548;11.926;2023-12-20T02:21:49;8.23;;;2.90;;
21697;SDS011;11010;49.548;11.926;2023-12-20T02:24:17;9.43;;;3.07;;
21697;SDS011;11010;49.548;11.926;2023-12-20T02:26:45;7.20;;;2.17;;
21697;SDS011;11010;49.548;11.926;2023-12-20T02:29:12;8.07;;;2.33;;
21697;SDS011;11010;49.548;11.926;2023-12-20T02:31:40;7.40;;;2.30;;
21697;SDS011;11010;49.548;11.926;2023-12-20T02:34:08;8.03;;;2.47;;
21697;SDS011;11010;49.548;11.926;2023-12-20T02:36:35;7.60;;;2.10;;
21697;SDS011;11010;49.548;11.926;2023-12-20T02:39:03;7.20;;;1.87;;
21697;SDS011;11010;49.548;11.926;2023-12-20T02:41:31;7.23;;;1.87;;
21697;SDS011;11010;49.548;11.926;2023-12-20T02:43:58;7.07;;;2.13;;
21697;SDS011;11010;49.548;11.926;2023-12-20T02:46:26;7.60;;;1.70;;
21697;SDS011;11010;49.548;11.926;2023-12-20T02:48:53;6.80;;;1.80;;
21697;SDS011;11010;49.548;11.926;2023-12-20T02:51:21;5.57;;;1.50;;
21697;SDS011;11010;49.548;11.926;2023-12-20T02:53:48;6.20;;;1.77;;
21697;SDS011;11010;49.548;11.926;2023-12-20T02:56:16;6.10;;;1.60;;
21697;SDS011;11010;49.548;11.926;2023-12-20T02:58:44;5.43;;;1.50;;
21697;SDS011;11010;49.548;11.926;2023-12-20T03:01:11;5.00;;;1.33;;
21697;SDS011;11010;49.548;11.926;2023-12-20T03:03:39;2.03;;;0.80;;
21697;SDS011;11010;49.548;11.926;2023-12-20T03:06:06;5.17;;;1.50;;
21697;SDS011;11010;49.548;11.926;2023-12-20T03:08:34;5.40;;;1.33;;
21697;SDS011;11010;49.548;11.926;2023-12-20T03:11:01;3.53;;;1.10;;
21697;SDS011;11010;49.548;11.926;2023-12-20T03:13:29;6.03;;;1.20;;
21697;SDS011;11010;49.548;11.926;2023-12-20T03:15:57;4.97;;;1.20;;
21697;SDS011;11010;49.548;11.926;2023-12-20T03:18:24;3.97;;;1.10;;
21697;SDS011;11010;49.548;11.926;2023-12-20T03:20:54;4.97;;;1.00;;
21697;SDS011;11010;49.548;11.926;2023-12-20T03:23:22;4.30;;;1.13;;
21697;SDS011;11010;49.548;11.926;2023-12-20T03:25:49;4.23;;;1.10;;
21697;SDS011;11010;49.548;11.926;2023-12-20T03:28:17;3.80;;;0.90;;
21697;SDS011;11010;49.548;11.926;2023-12-20T03:30:45;2.80;;;0.90;;
21697;SDS011;11010;49.548;11.926;2023-12-20T03:33:13;2.57;;;0.80;;
21697;SDS011;11010;49.548;11.926;2023-12-20T03:35:41;1.93;;;0.70;;
21697;SDS011;11010;49.548;11.926;2023-12-20T03:38:08;2.33;;;0.80;;
21697;SDS011;11010;49.548;11.926;2023-12-20T03:40:36;3.03;;;0.90;;
21697;SDS011;11010;49.548;11.926;2023-12-20T03:43:03;2.20;;;0.80;;
21697;SDS011;11010;49.548;11.926;2023-12-20T03:45:31;2.87;;;0.80;;
21697;SDS011;11010;49.548;11.926;2023-12-20T03:47:59;1.73;;;0.70;;
21697;SDS011;11010;49.548;11.926;2023-12-20T03:50:26;3.47;;;0.83;;
21697;SDS011;11010;49.548;11.926;2023-12-20T03:52:54;1.20;;;0.63;;
21697;SDS011;11010;49.548;11.926;2023-12-20T03:55:22;1.90;;;0.70;;
21697;SDS011;11010;49.548;11.926;2023-12-20T03:57:49;2.60;;;0.80;;
21697;SDS011;11010;49.548;11.926;2023-12-20T04:00:17;1.60;;;0.70;;
21697;SDS011;11010;49.548;11.926;2023-12-20T04:02:45;1.27;;;0.63;;
21697;SDS011;11010;49.548;11.926;2023-12-20T04:05:12;0.53;;;0.53;;
21697;SDS011;11010;49.548;11.926;2023-12-20T04:07:40;1.60;;;0.60;;
21697;SDS011;11010;49.548;11.926;2023-12-20T04:10:08;0.50;;;0.47;;
21697;SDS011;11010;49.548;11.926;2023-12-20T04:12:36;1.00;;;0.53;;
21697;SDS011;11010;49.548;11.926;2023-12-20T04:15:03;0.73;;;0.50;;
21697;SDS011;11010;49.548;11.926;2023-12-20T04:17:36;1.83;;;0.63;;
21697;SDS011;11010;49.548;11.926;2023-12-20T04:20:04;3.10;;;0.80;;
21697;SDS011;11010;49.548;11.926;2023-12-20T04:22:32;2.27;;;0.73;;
21697;SDS011;11010;49.548;11.926;2023-12-20T04:24:59;2.30;;;0.80;;
21697;SDS011;11010;49.548;11.926;2023-12-20T04:27:27;1.50;;;0.80;;
21697;SDS011;11010;49.548;11.926;2023-12-20T04:29:55;0.67;;;0.53;;
21697;SDS011;11010;49.548;11.926;2023-12-20T04:32:22;2.40;;;0.73;;
21697;SDS011;11010;49.548;11.926;2023-12-20T04:34:51;1.60;;;0.60;;
21697;SDS011;11010;49.548;11.926;2023-12-20T04:37:19;1.73;;;1.00;;
21697;SDS011;11010;49.548;11.926;2023-12-20T04:39:46;3.50;;;0.90;;
21697;SDS011;11010;49.548;11.926;2023-12-20T04:42:14;2.07;;;0.70;;
21697;SDS011;11010;49.548;11.926;2023-12-20T04:44:42;2.00;;;0.70;;
21697;SDS011;11010;49.548;11.926;2023-12-20T04:47:10;0.73;;;0.60;;
21697;SDS011;11010;49.548;11.926;2023-12-20T04:49:37;1.50;;;0.60;;
21697;SDS011;11010;49.548;11.926;2023-12-20T04:52:05;2.17;;;0.70;;
21697;SDS011;11010;49.548;11.926;2023-12-20T04:54:33;1.80;;;0.60;;
21697;SDS011;11010;49.548;11.926;2023-12-20T04:57:01;0.60;;;0.50;;
21697;SDS011;11010;49.548;11.926;2023-12-20T04:59:28;1.00;;;0.70;;
21697;SDS011;11010;49.548;11.926;2023-12-20T05:01:56;1.73;;;0.70;;
21697;SDS011;11010;49.548;11.926;2023-12-20T05:04:24;1.07;;;0.60;;
21697;SDS011;11010;49.548;11.926;2023-12-20T05:06:52;1.53;;;0.60;;
21697;SDS011;11010;49.548;11.926;2023-12-20T05:09:19;0.97;;;0.60;;
21697;SDS011;11010;49.548;11.926;2023-12-20T05:11:47;1.73;;;0.50;;
21697;SDS011;11010;49.548;11.926;2023-12-20T05:14:15;1.03;;;0.60;;
21697;SDS011;11010;49.548;11.926;2023-12-20T05:16:43;0.93;;;0.60;;
21697;SDS011;11010;49.548;11.926;2023-12-20T05:19:11;0.50;;;0.50;;
21697;SDS011;11010;49.548;11.926;2023-12-20T05:21:38;1.63;;;0.60;;
21697;SDS011;11010;49.548;11.926;2023-12-20T05:24:06;1.03;;;0.50;;
21697;SDS011;11010;49.548;11.926;2023-12-20T05:26:33;1.40;;;0.60;;
21697;SDS011;11010;49.548;11.926;2023-12-20T05:29:01;1.03;;;0.57;;
21697;SDS011;11010;49.548;11.926;2023-12-20T05:31:29;1.30;;;0.60;;
21697;SDS011;11010;49.548;11.926;2023-12-20T05:33:56;1.33;;;0.70;;
21697;SDS011;11010;49.548;11.926;2023-12-20T05:36:25;2.40;;;0.70;;
21697;SDS011;11010;49.548;11.926;2023-12-20T05:38:53;2.47;;;0.67;;
21697;SDS011;11010;49.548;11.926;2023-12-20T05:41:20;0.97;;;0.60;;
21697;SDS011;11010;49.548;11.926;2023-12-20T05:43:48;2.50;;;0.70;;
21697;SDS011;11010;49.548;11.926;2023-12-20T05:46:16;1.23;;;0.60;;
21697;SDS011;11010;49.548;11.926;2023-12-20T05:48:43;2.77;;;0.80;;
21697;SDS011;11010;49.548;11.926;2023-12-20T05:51:11;2.00;;;0.80;;
21697;SDS011;11010;49.548;11.926;2023-12-20T05:53:39;2.60;;;0.80;;
21697;SDS011;11010;49.548;11.926;2023-12-20T05:56:07;0.67;;;0.53;;
21697;SDS011;11010;49.548;11.926;2023-12-20T05:58:34;2.50;;;0.80;;
21697;SDS011;11010;49.548;11.926;2023-12-20T06:01:05;1.67;;;0.70;;
21697;SDS011;11010;49.548;11.926;2023-12-20T06:03:35;1.33;;;0.70;;
21697;SDS011;11010;49.548;11.926;2023-12-20T06:06:06;1.93;;;0.77;;
21697;SDS011;11010;49.548;11.926;2023-12-20T06:08:42;1.63;;;0.80;;
21697;SDS011;11010;49.548;11.926;2023-12-20T06:11:10;2.30;;;0.90;;
21697;SDS011;11010;49.548;11.926;2023-12-20T06:13:38;2.30;;;0.90;;
21697;SDS011;11010;49.548;11.926;2023-12-20T06:16:06;2.37;;;0.90;;
21697;SDS011;11010;49.548;11.926;2023-12-20T06:18:34;2.27;;;0.80;;
21697;SDS011;11010;49.548;11.926;2023-12-20T06:21:04;10.53;;;3.63;;
21697;SDS011;11010;49.548;11.926;2023-12-20T06:23:33;54.00;;;18.30;;
21697;SDS011;11010;49.548;11.926;2023-12-20T06:26:01;15.50;;;6.27;;
21697;SDS011;11010;49.548;11.926;2023-12-20T06:28:29;9.20;;;3.30;;
21697;SDS011;11010;49.548;11.926;2023-12-20T06:30:56;9.57;;;2.80;;
21697;SDS011;11010;49.548;11.926;2023-12-20T06:33:24;10.63;;;3.80;;
21697;SDS011;11010;49.548;11.926;2023-12-20T06:35:52;4.47;;;1.27;;
21697;SDS011;11010;49.548;11.926;2023-12-20T06:38:20;6.80;;;1.93;;
21697;SDS011;11010;49.548;11.926;2023-12-20T06:40:47;9.80;;;3.90;;
21697;SDS011;11010;49.548;11.926;2023-12-20T06:43:15;8.47;;;3.90;;
21697;SDS011;11010;49.548;11.926;2023-12-20T06:46:02;7.10;;;2.13;;
21697;SDS011;11010;49.548;11.926;2023-12-20T06:48:30;7.20;;;2.60;;
21697;SDS011;11010;49.548;11.926;2023-12-20T06:50:59;16.87;;;8.53;;
21697;SDS011;11010;49.548;11.926;2023-12-20T06:53:27;15.93;;;9.77;;
21697;SDS011;11010;49.548;11.926;2023-12-20T06:55:54;8.67;;;2.90;;
21697;SDS011;11010;49.548;11.926;2023-12-20T06:58:25;5.37;;;1.47;;
21697;SDS011;11010;49.548;11.926;2023-12-20T07:00:53;4.97;;;1.30;;
21697;SDS011;11010;49.548;11.926;2023-12-20T07:03:21;4.43;;;1.33;;
21697;SDS011;11010;49.548;11.926;2023-12-20T07:05:48;5.53;;;1.60;;
21697;SDS011;11010;49.548;11.926;2023-12-20T07:08:16;4.40;;;1.30;;
21697;SDS011;11010;49.548;11.926;2023-12-20T07:10:44;4.17;;;1.20;;
21697;SDS011;11010;49.548;11.926;2023-12-20T07:13:12;5.60;;;1.47;;
21697;SDS011;11010;49.548;11.926;2023-12-20T07:15:40;3.73;;;1.27;;
21697;SDS011;11010;49.548;11.926;2023-12-20T07:18:10;5.03;;;1.43;;
21697;SDS011;11010;49.548;11.926;2023-12-20T07:20:38;4.07;;;1.20;;
21697;SDS011;11010;49.548;11.926;2023-12-20T07:23:05;3.30;;;1.13;;
21697;SDS011;11010;49.548;11.926;2023-12-20T07:25:33;3.33;;;1.00;;
21697;SDS011;11010;49.548;11.926;2023-12-20T07:28:01;4.07;;;1.10;;
21697;SDS011;11010;49.548;11.926;2023-12-20T07:30:28;2.33;;;0.90;;
21697;SDS011;11010;49.548;11.926;2023-12-20T07:32:56;3.20;;;1.00;;
21697;SDS011;11010;49.548;11.926;2023-12-20T07:35:24;2.63;;;0.73;;
21697;SDS011;11010;49.548;11.926;2023-12-20T07:37:52;2.43;;;0.90;;
21697;SDS011;11010;49.548;11.926;2023-12-20T07:40:19;2.03;;;0.70;;
21697;SDS011;11010;49.548;11.926;2023-12-20T07:42:47;2.83;;;0.90;;
21697;SDS011;11010;49.548;11.926;2023-12-20T07:45:15;2.43;;;0.80;;
21697;SDS011;11010;49.548;11.926;2023-12-20T07:47:42;2.63;;;0.80;;
21697;SDS011;11010;49.548;11.926;2023-12-20T07:50:10;0.83;;;0.60;;
21697;SDS011;11010;49.548;11.926;2023-12-20T07:52:38;3.00;;;0.97;;
21697;SDS011;11010;49.548;11.926;2023-12-20T07:55:06;2.27;;;0.90;;
21697;SDS011;11010;49.548;11.926;2023-12-20T07:57:34;2.83;;;0.90;;
21697;SDS011;11010;49.548;11.926;2023-12-20T08:00:01;3.33;;;1.00;;
21697;SDS011;11010;49.548;11.926;2023-12-20T08:02:30;3.33;;;1.00;;
21697;SDS011;11010;49.548;11.926;2023-12-20T08:04:58;3.87;;;1.10;;
21697;SDS011;11010;49.548;11.926;2023-12-20T08:07:25;2.50;;;0.90;;
21697;SDS011;11010;49.548;11.926;2023-12-20T08:09:53;3.20;;;1.03;;
21697;SDS011;11010;49.548;11.926;2023-12-20T08:12:22;4.03;;;1.30;;
21697;SDS011;11010;49.548;11.926;2023-12-20T08:14:50;3.53;;;1.17;;
21697;SDS011;11010;49.548;11.926;2023-12-20T08:17:18;2.47;;;0.90;;
21697;SDS011;11010;49.548;11.926;2023-12-20T08:19:46;5.93;;;1.50;;
21697;SDS011;11010;49.548;11.926;2023-12-20T08:22:14;7.20;;;1.90;;
21697;SDS011;11010;49.548;11.926;2023-12-20T08:24:41;3.57;;;1.23;;
21697;SDS011;11010;49.548;11.926;2023-12-20T08:27:09;5.93;;;1.60;;
21697;SDS011;11010;49.548;11.926;2023-12-20T08:29:37;6.23;;;1.83;;
21697;SDS011;11010;49.548;11.926;2023-12-20T08:32:04;6.47;;;1.70;;
21697;SDS011;11010;49.548;11.926;2023-12-20T08:34:32;4.40;;;1.43;;
21697;SDS011;11010;49.548;11.926;2023-12-20T08:37:00;6.93;;;1.67;;
21697;SDS011;11010;49.548;11.926;2023-12-20T08:39:28;7.00;;;2.00;;
21697;SDS011;11010;49.548;11.926;2023-12-20T08:41:58;6.33;;;1.70;;
21697;SDS011;11010;49.548;11.926;2023-12-20T08:44:25;7.00;;;2.00;;
21697;SDS011;11010;49.548;11.926;2023-12-20T08:46:53;6.53;;;1.80;;
21697;SDS011;11010;49.548;11.926;2023-12-20T08:49:23;5.50;;;1.50;;
21697;SDS011;11010;49.548;11.926;2023-12-20T08:51:52;6.70;;;1.93;;
21697;SDS011;11010;49.548;11.926;2023-12-20T08:54:20;6.43;;;2.10;;
21697;SDS011;11010;49.548;11.926;2023-12-20T08:56:47;6.23;;;1.87;;
21697;SDS011;11010;49.548;11.926;2023-12-20T08:59:15;5.57;;;1.77;;
21697;SDS011;11010;49.548;11.926;2023-12-20T09:01:42;5.67;;;1.70;;
21697;SDS011;11010;49.548;11.926;2023-12-20T09:04:10;5.00;;;1.63;;
21697;SDS011;11010;49.548;11.926;2023-12-20T09:06:38;4.87;;;1.53;;
21697;SDS011;11010;49.548;11.926;2023-12-20T09:09:05;5.23;;;1.60;;
21697;SDS011;11010;49.548;11.926;2023-12-20T09:11:35;6.10;;;1.83;;
21697;SDS011;11010;49.548;11.926;2023-12-20T09:14:03;6.47;;;1.87;;
21697;SDS011;11010;49.548;11.926;2023-12-20T09:16:31;6.23;;;1.70;;
21697;SDS011;11010;49.548;11.926;2023-12-20T09:18:58;6.10;;;1.77;;
21697;SDS011;11010;49.548;11.926;2023-12-20T09:21:26;6.97;;;1.90;;
21697;SDS011;11010;49.548;11.926;2023-12-20T09:23:54;5.10;;;1.67;;
21697;SDS011;11010;49.548;11.926;2023-12-20T09:26:22;4.63;;;1.40;;
21697;SDS011;11010;49.548;11.926;2023-12-20T09:28:50;4.27;;;1.23;;
21697;SDS011;11010;49.548;11.926;2023-12-20T09:31:18;4.40;;;1.27;;
21697;SDS011;11010;49.548;11.926;2023-12-20T09:33:45;3.23;;;1.13;;
21697;SDS011;11010;49.548;11.926;2023-12-20T09:36:13;5.00;;;1.40;;
21697;SDS011;11010;49.548;11.926;2023-12-20T09:38:41;5.17;;;1.50;;
21697;SDS011;11010;49.548;11.926;2023-12-20T09:41:11;6.00;;;1.67;;
21697;SDS011;11010;49.548;11.926;2023-12-20T09:43:38;5.77;;;1.60;;
21697;SDS011;11010;49.548;11.926;2023-12-20T09:46:07;4.60;;;1.30;;
21697;SDS011;11010;49.548;11.926;2023-12-20T09:48:37;6.33;;;1.50;;
21697;SDS011;11010;49.548;11.926;2023-12-20T09:51:04;4.63;;;1.37;;
21697;SDS011;11010;49.548;11.926;2023-12-20T09:53:32;3.70;;;1.10;;
21697;SDS011;11010;49.548;11.926;2023-12-20T09:56:01;5.13;;;1.40;;
21697;SDS011;11010;49.548;11.926;2023-12-20T09:58:29;3.13;;;1.10;;
21697;SDS011;11010;49.548;11.926;2023-12-20T10:00:57;4.90;;;1.27;;
21697;SDS011;11010;49.548;11.926;2023-12-20T10:03:25;4.80;;;1.30;;
21697;SDS011;11010;49.548;11.926;2023-12-20T10:05:54;4.60;;;1.20;;
21697;SDS011;11010;49.548;11.926;2023-12-20T10:08:24;3.80;;;1.00;;
21697;SDS011;11010;49.548;11.926;2023-12-20T10:10:52;3.00;;;0.93;;
21697;SDS011;11010;49.548;11.926;2023-12-20T10:13:20;6.07;;;1.20;;
21697;SDS011;11010;49.548;11.926;2023-12-20T10:15:47;3.20;;;1.03;;
21697;SDS011;11010;49.548;11.926;2023-12-20T10:18:17;3.23;;;1.00;;
21697;SDS011;11010;49.548;11.926;2023-12-20T10:20:45;4.47;;;1.07;;
21697;SDS011;11010;49.548;11.926;2023-12-20T10:23:13;8.37;;;2.30;;
21697;SDS011;11010;49.548;11.926;2023-12-20T10:25:42;8.47;;;1.90;;
21697;SDS011;11010;49.548;11.926;2023-12-20T10:30:38;2.77;;;0.87;;
21697;SDS011;11010;49.548;11.926;2023-12-20T10:33:07;3.77;;;1.20;;
21697;SDS011;11010;49.548;11.926;2023-12-20T10:35:35;5.10;;;1.40;;
21697;SDS011;11010;49.548;11.926;2023-12-20T10:38:03;4.63;;;1.10;;
21697;SDS011;11010;49.548;11.926;2023-12-20T10:40:35;4.67;;;1.20;;
21697;SDS011;11010;49.548;11.926;2023-12-20T10:43:04;4.87;;;1.43;;
21697;SDS011;11010;49.548;11.926;2023-12-20T10:45:32;4.67;;;1.30;;
21697;SDS011;11010;49.548;11.926;2023-12-20T10:48:01;5.63;;;1.00;;
21697;SDS011;11010;49.548;11.926;2023-12-20T10:50:30;5.87;;;1.30;;
21697;SDS011;11010;49.548;11.926;2023-12-20T10:52:58;4.23;;;1.20;;
21697;SDS011;11010;49.548;11.926;2023-12-20T10:55:26;3.27;;;1.00;;
21697;SDS011;11010;49.548;11.926;2023-12-20T10:58:08;3.37;;;1.00;;
21697;SDS011;11010;49.548;11.926;2023-12-20T11:00:38;6.40;;;1.40;;
21697;SDS011;11010;49.548;11.926;2023-12-20T11:03:10;3.50;;;1.00;;
21697;SDS011;11010;49.548;11.926;2023-12-20T11:05:44;4.87;;;1.17;;
21697;SDS011;11010;49.548;11.926;2023-12-20T11:10:51;1.20;;;0.67;;
21697;SDS011;11010;49.548;11.926;2023-12-20T11:13:24;3.43;;;1.10;;
21697;SDS011;11010;49.548;11.926;2023-12-20T11:15:53;2.50;;;0.73;;
21697;SDS011;11010;49.548;11.926;2023-12-20T11:18:20;6.43;;;1.20;;
21697;SDS011;11010;49.548;11.926;2023-12-20T11:20:55;5.57;;;1.50;;
21697;SDS011;11010;49.548;11.926;2023-12-20T11:23:29;4.73;;;1.27;;
21697;SDS011;11010;49.548;11.926;2023-12-20T11:25:56;5.00;;;1.30;;
21697;SDS011;11010;49.548;11.926;2023-12-20T11:28:25;4.67;;;0.90;;
21697;SDS011;11010;49.548;11.926;2023-12-20T11:30:54;3.97;;;1.10;;
21697;SDS011;11010;49.548;11.926;2023-12-20T11:33:23;6.70;;;1.60;;
21697;SDS011;11010;49.548;11.926;2023-12-20T11:35:55;6.67;;;1.47;;
21697;SDS011;11010;49.548;11.926;2023-12-20T11:38:23;5.87;;;1.40;;
21697;SDS011;11010;49.548;11.926;2023-12-20T11:40:53;2.87;;;0.97;;
21697;SDS011;11010;49.548;11.926;2023-12-20T11:46:03;6.13;;;1.33;;
21697;SDS011;11010;49.548;11.926;2023-12-20T11:48:33;5.37;;;1.20;;
21697;SDS011;11010;49.548;11.926;2023-12-20T11:51:01;4.00;;;0.90;;
21697;SDS011;11010;49.548;11.926;2023-12-20T11:53:30;4.53;;;1.17;;
21697;SDS011;11010;49.548;11.926;2023-12-20T11:56:00;6.77;;;1.27;;
21697;SDS011;11010;49.548;11.926;2023-12-20T11:58:29;8.17;;;1.47;;
21697;SDS011;11010;49.548;11.926;2023-12-20T12:00:57;8.03;;;1.50;;
21697;SDS011;11010;49.548;11.926;2023-12-20T12:03:25;7.60;;;1.70;;
21697;SDS011;11010;49.548;11.926;2023-12-20T12:05:53;5.20;;;1.23;;
21697;SDS011;11010;49.548;11.926;2023-12-20T12:08:21;8.50;;;1.77;;
21697;SDS011;11010;49.548;11.926;2023-12-20T12:10:48;6.60;;;1.33;;
21697;SDS011;11010;49.548;11.926;2023-12-20T12:13:16;3.83;;;1.10;;
21697;SDS011;11010;49.548;11.926;2023-12-20T12:15:44;5.33;;;1.30;;
21697;SDS011;11010;49.548;11.926;2023-12-20T12:18:15;5.70;;;1.10;;
21697;SDS011;11010;49.548;11.926;2023-12-20T12:20:42;7.43;;;1.50;;
21697;SDS011;11010;49.548;11.926;2023-12-20T12:23:10;3.00;;;0.70;;
21697;SDS011;11010;49.548;11.926;2023-12-20T12:25:37;5.33;;;1.10;;
21697;SDS011;11010;49.548;11.926;2023-12-20T12:28:09;6.33;;;1.57;;
21697;SDS011;11010;49.548;11.926;2023-12-20T12:30:37;5.40;;;1.10;;
21697;SDS011;11010;49.548;11.926;2023-12-20T12:33:15;3.23;;;1.10;;
21697;SDS011;11010;49.548;11.926;2023-12-20T12:35:43;5.03;;;1.10;;
21697;SDS011;11010;49.548;11.926;2023-12-20T12:38:11;5.00;;;1.10;;
21697;SDS011;11010;49.548;11.926;2023-12-20T12:40:39;5.13;;;1.20;;
21697;SDS011;11010;49.548;11.926;2023-12-20T12:43:07;5.63;;;1.23;;
21697;SDS011;11010;49.548;11.926;2023-12-20T12:45:34;5.60;;;1.10;;
21697;SDS011;11010;49.548;11.926;2023-12-20T12:48:02;3.70;;;0.90;;
21697;SDS011;11010;49.548;11.926;2023-12-20T12:50:30;5.30;;;1.20;;
21697;SDS011;11010;49.548;11.926;2023-12-20T12:52:58;1.90;;;0.70;;
21697;SDS011;11010;49.548;11.926;2023-12-20T12:55:25;2.63;;;0.90;;
21697;SDS011;11010;49.548;11.926;2023-12-20T12:57:53;3.67;;;1.03;;
21697;SDS011;11010;49.548;11.926;2023-12-20T13:00:21;2.90;;;0.90;;
21697;SDS011;11010;49.548;11.926;2023-12-20T13:02:49;5.97;;;1.20;;
21697;SDS011;11010;49.548;11.926;2023-12-20T13:05:16;5.43;;;1.30;;
21697;SDS011;11010;49.548;11.926;2023-12-20T13:07:44;4.10;;;1.40;;
21697;SDS011;11010;49.548;11.926;2023-12-20T13:10:13;6.43;;;1.37;;
21697;SDS011;11010;49.548;11.926;2023-12-20T13:12:43;8.57;;;2.33;;
21697;SDS011;11010;49.548;11.926;2023-12-20T13:15:11;7.97;;;1.40;;
21697;SDS011;11010;49.548;11.926;2023-12-20T13:17:38;7.57;;;1.67;;
21697;SDS011;11010;49.548;11.926;2023-12-20T13:20:07;5.97;;;1.50;;
21697;SDS011;11010;49.548;11.926;2023-12-20T13:22:35;3.93;;;1.30;;
21697;SDS011;11010;49.548;11.926;2023-12-20T13:25:03;6.90;;;1.53;;
21697;SDS011;11010;49.548;11.926;2023-12-20T13:27:30;5.77;;;1.50;;
21697;SDS011;11010;49.548;11.926;2023-12-20T13:29:59;7.80;;;1.83;;
21697;SDS011;11010;49.548;11.926;2023-12-20T13:32:26;6.77;;;1.60;;
21697;SDS011;11010;49.548;11.926;2023-12-20T13:34:54;6.30;;;1.63;;
21697;SDS011;11010;49.548;11.926;2023-12-20T13:37:22;6.67;;;1.90;;
21697;SDS011;11010;49.548;11.926;2023-12-20T13:39:50;6.43;;;1.70;;
21697;SDS011;11010;49.548;11.926;2023-12-20T13:42:17;5.20;;;1.40;;
21697;SDS011;11010;49.548;11.926;2023-12-20T13:44:47;4.20;;;1.27;;
21697;SDS011;11010;49.548;11.926;2023-12-20T13:47:14;6.00;;;1.40;;
21697;SDS011;11010;49.548;11.926;2023-12-20T13:49:42;4.90;;;1.63;;
21697;SDS011;11010;49.548;11.926;2023-12-20T13:52:11;3.93;;;1.03;;
21697;SDS011;11010;49.548;11.926;2023-12-20T13:54:38;4.03;;;1.23;;
21697;SDS011;11010;49.548;11.926;2023-12-20T13:57:06;4.50;;;1.03;;
21697;SDS011;11010;49.548;11.926;2023-12-20T13:59:47;4.63;;;1.33;;
21697;SDS011;11010;49.548;11.926;2023-12-20T14:02:15;6.73;;;1.67;;
21697;SDS011;11010;49.548;11.926;2023-12-20T14:04:45;7.97;;;1.60;;
21697;SDS011;11010;49.548;11.926;2023-12-20T14:07:13;6.10;;;1.30;;
21697;SDS011;11010;49.548;11.926;2023-12-20T14:09:41;7.03;;;1.30;;
21697;SDS011;11010;49.548;11.926;2023-12-20T14:12:13;4.33;;;1.30;;
21697;SDS011;11010;49.548;11.926;2023-12-20T14:14:40;5.70;;;1.50;;
21697;SDS011;11010;49.548;11.926;2023-12-20T14:17:08;2.50;;;0.80;;
21697;SDS011;11010;49.548;11.926;2023-12-20T14:19:36;5.37;;;1.60;;
21697;SDS011;11010;49.548;11.926;2023-12-20T14:22:04;7.43;;;1.70;;
21697;SDS011;11010;49.548;11.926;2023-12-20T14:24:33;5.80;;;1.40;;
21697;SDS011;11010;49.548;11.926;2023-12-20T14:27:01;6.73;;;1.50;;
21697;SDS011;11010;49.548;11.926;2023-12-20T14:29:28;5.60;;;1.40;;
21697;SDS011;11010;49.548;11.926;2023-12-20T14:31:56;3.70;;;1.03;;
21697;SDS011;11010;49.548;11.926;2023-12-20T14:34:24;7.60;;;1.50;;
21697;SDS011;11010;49.548;11.926;2023-12-20T14:36:51;9.47;;;1.90;;
21697;SDS011;11010;49.548;11.926;2023-12-20T14:39:20;7.13;;;1.40;;
21697;SDS011;11010;49.548;11.926;2023-12-20T14:41:47;5.27;;;1.37;;
21697;SDS011;11010;49.548;11.926;2023-12-20T14:44:15;5.20;;;1.40;;
21697;SDS011;11010;49.548;11.926;2023-12-20T14:46:44;6.53;;;1.50;;